Главная страница
METAR-TAF:

METAR-TAF

Аэропорты :

Каракас, Венесуэла

широта: 10-36N, долгота: 066-59W, высота над уровнем моря: 43 м

Текущие метеонаблюдения

Эта сводка был подготовлена 31 минут назад, в 21:00 UTC
Ветер 4 Узел от северо-восточный
Температура 29°C
Влажность 74%
Давление 1008 hPa
Видимость 10 км и более
небольшая облачность на высоте 1600 фута

METAR: SVMI 202100Z 05004KT 9999 FEW016 29/24 Q1008

Время: 17:31 (21:31 UTC)

Прогноз

Эта сводка был подготовлена 5 часа и 31 минут назад, в 16:00 UTC
Прогноз действительный с 20-го 18 UTC до 21-го 18 UTC
Ветер Узел от северный
Видимость 10 км и более
небольшая облачность на высоте 1600 фута
изменения
С 20-го 18 UTC до 20-го 22 UTC
Ветер 5 Узел от северо-восточный
Отдельные облака на высоте 1600 фута

TAF: SVMI 201600Z 2018/2118 00000KT 9999 FEW016 TX32/19Z TN23/09Z BECMG 2018/2022 05005KT SCT016

Метеонаблюдения и прогнозы для более 4000 аэропортов (сводки METAR и TAF).

Имеющиеся станции представлены на карте желтыми и красными точками.

Чтобы увидеть название станции, наведите на нее мышь.

Затем щелкните, чтобы увидеть метеонаблюдения и метеопрогнозы.

Управление картой: чтобы увеличить масштаб, щелкните зеленые кнопки с черным крестиком; чтобы уменьшить масштаб, щелкните зеленую кнопку с тире; для просмотра соседних карт щелкайте зеленые стрелки.


METAR-TAF: